sensor_id;sensor_type;location;lat;lon;timestamp;temperature;humidity
73939;DHT22;62291;47.554;8.504;2023-06-04T00:00:29;17.50;93.80
73939;DHT22;62291;47.554;8.504;2023-06-04T00:02:55;17.40;93.90
73939;DHT22;62291;47.554;8.504;2023-06-04T00:05:20;17.40;93.80
73939;DHT22;62291;47.554;8.504;2023-06-04T00:07:47;17.40;93.70
73939;DHT22;62291;47.554;8.504;2023-06-04T00:10:13;17.40;93.70
73939;DHT22;62291;47.554;8.504;2023-06-04T00:12:38;17.30;93.90
73939;DHT22;62291;47.554;8.504;2023-06-04T00:15:04;17.30;93.60
73939;DHT22;62291;47.554;8.504;2023-06-04T00:17:30;17.20;93.60
73939;DHT22;62291;47.554;8.504;2023-06-04T00:19:56;17.20;93.90
73939;DHT22;62291;47.554;8.504;2023-06-04T00:22:21;17.20;94.10
73939;DHT22;62291;47.554;8.504;2023-06-04T00:24:47;17.10;93.50
73939;DHT22;62291;47.554;8.504;2023-06-04T00:27:12;17.10;93.20
73939;DHT22;62291;47.554;8.504;2023-06-04T00:29:38;17.20;93.10
73939;DHT22;62291;47.554;8.504;2023-06-04T00:32:03;17.20;93.10
73939;DHT22;62291;47.554;8.504;2023-06-04T00:34:29;17.20;93.00
73939;DHT22;62291;47.554;8.504;2023-06-04T00:36:55;17.20;92.90
73939;DHT22;62291;47.554;8.504;2023-06-04T00:39:21;17.20;92.90
73939;DHT22;62291;47.554;8.504;2023-06-04T00:41:46;17.20;93.00
73939;DHT22;62291;47.554;8.504;2023-06-04T00:44:12;17.20;93.00
73939;DHT22;62291;47.554;8.504;2023-06-04T00:46:37;17.10;93.10
73939;DHT22;62291;47.554;8.504;2023-06-04T00:49:04;17.10;93.10
73939;DHT22;62291;47.554;8.504;2023-06-04T00:51:30;17.10;93.20
73939;DHT22;62291;47.554;8.504;2023-06-04T00:53:56;17.10;93.30
73939;DHT22;62291;47.554;8.504;2023-06-04T00:56:23;17.10;93.10
73939;DHT22;62291;47.554;8.504;2023-06-04T00:58:49;17.10;93.40
73939;DHT22;62291;47.554;8.504;2023-06-04T01:01:20;17.00;93.40
73939;DHT22;62291;47.554;8.504;2023-06-04T01:03:49;17.00;93.50
73939;DHT22;62291;47.554;8.504;2023-06-04T01:08:56;17.00;93.60
73939;DHT22;62291;47.554;8.504;2023-06-04T01:11:33;17.00;93.50
73939;DHT22;62291;47.554;8.504;2023-06-04T01:14:00;17.00;93.50
73939;DHT22;62291;47.554;8.504;2023-06-04T01:16:26;17.00;93.50
73939;DHT22;62291;47.554;8.504;2023-06-04T01:18:55;17.00;93.80
73939;DHT22;62291;47.554;8.504;2023-06-04T01:21:23;17.00;94.20
73939;DHT22;62291;47.554;8.504;2023-06-04T01:23:52;16.90;93.80
73939;DHT22;62291;47.554;8.504;2023-06-04T01:26:27;16.90;94.20
73939;DHT22;62291;47.554;8.504;2023-06-04T01:28:53;16.90;94.00
73939;DHT22;62291;47.554;8.504;2023-06-04T01:31:19;16.80;94.50
73939;DHT22;62291;47.554;8.504;2023-06-04T01:33:50;16.70;94.40
73939;DHT22;62291;47.554;8.504;2023-06-04T01:36:16;16.70;94.50
73939;DHT22;62291;47.554;8.504;2023-06-04T01:38:42;16.60;94.80
73939;DHT22;62291;47.554;8.504;2023-06-04T01:41:07;16.60;94.50
73939;DHT22;62291;47.554;8.504;2023-06-04T01:43:33;16.60;94.80
73939;DHT22;62291;47.554;8.504;2023-06-04T01:46:01;16.60;94.80
73939;DHT22;62291;47.554;8.504;2023-06-04T01:48:26;16.60;95.10
73939;DHT22;62291;47.554;8.504;2023-06-04T01:50:52;16.50;95.20
73939;DHT22;62291;47.554;8.504;2023-06-04T01:53:18;16.40;96.30
73939;DHT22;62291;47.554;8.504;2023-06-04T01:55:43;16.30;95.80
73939;DHT22;62291;47.554;8.504;2023-06-04T01:58:10;16.30;95.90
73939;DHT22;62291;47.554;8.504;2023-06-04T02:00:35;16.20;96.00
73939;DHT22;62291;47.554;8.504;2023-06-04T02:03:01;16.20;96.40
73939;DHT22;62291;47.554;8.504;2023-06-04T02:05:27;16.10;96.20
73939;DHT22;62291;47.554;8.504;2023-06-04T02:07:52;16.10;96.20
73939;DHT22;62291;47.554;8.504;2023-06-04T02:10:18;16.00;96.00
73939;DHT22;62291;47.554;8.504;2023-06-04T02:13:00;16.00;96.20
73939;DHT22;62291;47.554;8.504;2023-06-04T02:15:26;16.00;96.70
73939;DHT22;62291;47.554;8.504;2023-06-04T02:17:56;15.90;96.50
73939;DHT22;62291;47.554;8.504;2023-06-04T02:20:24;15.90;96.80
73939;DHT22;62291;47.554;8.504;2023-06-04T02:22:50;15.90;96.60
73939;DHT22;62291;47.554;8.504;2023-06-04T02:25:16;15.80;96.90
73939;DHT22;62291;47.554;8.504;2023-06-04T02:27:41;15.80;97.10
73939;DHT22;62291;47.554;8.504;2023-06-04T02:30:07;15.70;96.90
73939;DHT22;62291;47.554;8.504;2023-06-04T02:32:33;15.70;97.50
73939;DHT22;62291;47.554;8.504;2023-06-04T02:35:01;15.50;97.90
73939;DHT22;62291;47.554;8.504;2023-06-04T02:37:27;15.40;97.10
73939;DHT22;62291;47.554;8.504;2023-06-04T02:39:52;15.40;97.50
73939;DHT22;62291;47.554;8.504;2023-06-04T02:42:18;15.40;98.20
73939;DHT22;62291;47.554;8.504;2023-06-04T02:44:43;15.40;97.20
73939;DHT22;62291;47.554;8.504;2023-06-04T02:47:09;15.40;98.20
73939;DHT22;62291;47.554;8.504;2023-06-04T02:49:35;15.40;98.60
73939;DHT22;62291;47.554;8.504;2023-06-04T02:52:00;15.30;98.10
73939;DHT22;62291;47.554;8.504;2023-06-04T02:54:26;15.30;98.40
73939;DHT22;62291;47.554;8.504;2023-06-04T02:56:51;15.30;98.90
73939;DHT22;62291;47.554;8.504;2023-06-04T02:59:17;15.20;98.20
73939;DHT22;62291;47.554;8.504;2023-06-04T03:01:43;15.30;97.80
73939;DHT22;62291;47.554;8.504;2023-06-04T03:04:08;15.40;98.10
73939;DHT22;62291;47.554;8.504;2023-06-04T03:06:35;15.40;97.70
73939;DHT22;62291;47.554;8.504;2023-06-04T03:09:03;15.40;97.30
73939;DHT22;62291;47.554;8.504;2023-06-04T03:11:29;15.40;97.40
73939;DHT22;62291;47.554;8.504;2023-06-04T03:13:54;15.40;97.40
73939;DHT22;62291;47.554;8.504;2023-06-04T03:16:20;15.50;97.50
73939;DHT22;62291;47.554;8.504;2023-06-04T03:18:46;15.50;97.70
73939;DHT22;62291;47.554;8.504;2023-06-04T03:21:11;15.50;97.40
73939;DHT22;62291;47.554;8.504;2023-06-04T03:23:37;15.50;97.50
73939;DHT22;62291;47.554;8.504;2023-06-04T03:26:03;15.50;97.50
73939;DHT22;62291;47.554;8.504;2023-06-04T03:28:29;15.50;97.20
73939;DHT22;62291;47.554;8.504;2023-06-04T03:30:55;15.60;97.80
73939;DHT22;62291;47.554;8.504;2023-06-04T03:33:20;15.60;97.30
73939;DHT22;62291;47.554;8.504;2023-06-04T03:35:46;15.70;97.70
73939;DHT22;62291;47.554;8.504;2023-06-04T03:38:13;15.70;97.50
73939;DHT22;62291;47.554;8.504;2023-06-04T03:40:39;15.70;97.50
73939;DHT22;62291;47.554;8.504;2023-06-04T03:43:04;15.70;97.40
73939;DHT22;62291;47.554;8.504;2023-06-04T03:45:30;15.70;97.40
73939;DHT22;62291;47.554;8.504;2023-06-04T03:47:56;15.80;97.10
73939;DHT22;62291;47.554;8.504;2023-06-04T03:50:21;15.80;97.00
73939;DHT22;62291;47.554;8.504;2023-06-04T03:52:50;15.80;97.00
73939;DHT22;62291;47.554;8.504;2023-06-04T03:55:15;15.90;96.80
73939;DHT22;62291;47.554;8.504;2023-06-04T03:57:41;15.90;96.80
73939;DHT22;62291;47.554;8.504;2023-06-04T04:00:07;16.00;96.10
73939;DHT22;62291;47.554;8.504;2023-06-04T04:02:33;16.00;96.10
73939;DHT22;62291;47.554;8.504;2023-06-04T04:04:59;16.10;96.00
73939;DHT22;62291;47.554;8.504;2023-06-04T04:07:25;16.10;96.00
73939;DHT22;62291;47.554;8.504;2023-06-04T04:09:51;16.10;97.10
73939;DHT22;62291;47.554;8.504;2023-06-04T04:12:16;16.00;97.10
73939;DHT22;62291;47.554;8.504;2023-06-04T04:14:42;16.00;96.90
73939;DHT22;62291;47.554;8.504;2023-06-04T04:17:08;15.90;96.00
73939;DHT22;62291;47.554;8.504;2023-06-04T04:19:33;16.00;96.10
73939;DHT22;62291;47.554;8.504;2023-06-04T04:21:59;16.20;96.50
73939;DHT22;62291;47.554;8.504;2023-06-04T04:24:26;16.20;96.60
73939;DHT22;62291;47.554;8.504;2023-06-04T04:26:52;16.30;96.30
73939;DHT22;62291;47.554;8.504;2023-06-04T04:29:21;16.30;95.60
73939;DHT22;62291;47.554;8.504;2023-06-04T04:31:53;16.50;95.50
73939;DHT22;62291;47.554;8.504;2023-06-04T04:34:21;16.60;96.00
73939;DHT22;62291;47.554;8.504;2023-06-04T04:36:47;16.60;96.00
73939;DHT22;62291;47.554;8.504;2023-06-04T04:39:23;16.70;95.80
73939;DHT22;62291;47.554;8.504;2023-06-04T04:41:49;16.80;93.90
73939;DHT22;62291;47.554;8.504;2023-06-04T04:44:15;16.80;94.70
73939;DHT22;62291;47.554;8.504;2023-06-04T04:46:40;16.80;94.30
73939;DHT22;62291;47.554;8.504;2023-06-04T04:49:06;16.80;93.70
73939;DHT22;62291;47.554;8.504;2023-06-04T04:51:32;16.80;94.00
73939;DHT22;62291;47.554;8.504;2023-06-04T04:53:57;16.80;93.90
73939;DHT22;62291;47.554;8.504;2023-06-04T04:56:25;16.90;94.30
73939;DHT22;62291;47.554;8.504;2023-06-04T04:58:51;16.90;94.10
73939;DHT22;62291;47.554;8.504;2023-06-04T05:01:17;16.80;94.20
73939;DHT22;62291;47.554;8.504;2023-06-04T05:03:43;16.90;94.80
73939;DHT22;62291;47.554;8.504;2023-06-04T05:06:08;16.90;94.00
73939;DHT22;62291;47.554;8.504;2023-06-04T05:08:34;17.00;93.50
73939;DHT22;62291;47.554;8.504;2023-06-04T05:10:59;16.90;93.50
73939;DHT22;62291;47.554;8.504;2023-06-04T05:13:25;16.90;93.20
73939;DHT22;62291;47.554;8.504;2023-06-04T05:15:51;17.00;93.20
73939;DHT22;62291;47.554;8.504;2023-06-04T05:18:18;16.90;93.70
73939;DHT22;62291;47.554;8.504;2023-06-04T05:20:46;17.00;93.10
73939;DHT22;62291;47.554;8.504;2023-06-04T05:23:11;16.90;92.70
73939;DHT22;62291;47.554;8.504;2023-06-04T05:25:37;17.00;94.00
73939;DHT22;62291;47.554;8.504;2023-06-04T05:28:03;17.00;92.50
73939;DHT22;62291;47.554;8.504;2023-06-04T05:30:31;17.00;92.60
73939;DHT22;62291;47.554;8.504;2023-06-04T05:32:56;17.00;92.80
73939;DHT22;62291;47.554;8.504;2023-06-04T05:35:22;17.10;93.10
73939;DHT22;62291;47.554;8.504;2023-06-04T05:37:48;17.20;94.00
73939;DHT22;62291;47.554;8.504;2023-06-04T05:40:19;17.10;92.50
73939;DHT22;62291;47.554;8.504;2023-06-04T05:42:46;17.10;92.80
73939;DHT22;62291;47.554;8.504;2023-06-04T05:45:12;17.10;93.10
73939;DHT22;62291;47.554;8.504;2023-06-04T05:47:37;17.10;92.20
73939;DHT22;62291;47.554;8.504;2023-06-04T05:50:03;17.10;92.60
73939;DHT22;62291;47.554;8.504;2023-06-04T05:52:29;17.20;92.20
73939;DHT22;62291;47.554;8.504;2023-06-04T05:54:54;17.10;92.10
73939;DHT22;62291;47.554;8.504;2023-06-04T05:57:20;17.10;92.10
73939;DHT22;62291;47.554;8.504;2023-06-04T05:59:46;17.10;92.60
73939;DHT22;62291;47.554;8.504;2023-06-04T06:02:11;17.10;92.30
73939;DHT22;62291;47.554;8.504;2023-06-04T06:04:38;17.10;93.10
73939;DHT22;62291;47.554;8.504;2023-06-04T06:07:03;17.00;92.30
73939;DHT22;62291;47.554;8.504;2023-06-04T06:09:30;17.10;92.30
73939;DHT22;62291;47.554;8.504;2023-06-04T06:11:55;17.10;92.40
73939;DHT22;62291;47.554;8.504;2023-06-04T06:14:21;17.10;92.00
73939;DHT22;62291;47.554;8.504;2023-06-04T06:16:48;17.10;92.00
73939;DHT22;62291;47.554;8.504;2023-06-04T06:19:14;17.00;92.60
73939;DHT22;62291;47.554;8.504;2023-06-04T06:21:39;17.00;92.70
73939;DHT22;62291;47.554;8.504;2023-06-04T06:24:05;17.00;92.80
73939;DHT22;62291;47.554;8.504;2023-06-04T06:26:31;17.10;92.90
73939;DHT22;62291;47.554;8.504;2023-06-04T06:28:56;17.10;92.70
73939;DHT22;62291;47.554;8.504;2023-06-04T06:31:22;17.10;92.80
73939;DHT22;62291;47.554;8.504;2023-06-04T06:33:48;17.10;92.60
73939;DHT22;62291;47.554;8.504;2023-06-04T06:36:13;17.10;92.70
73939;DHT22;62291;47.554;8.504;2023-06-04T06:38:39;17.40;92.80
73939;DHT22;62291;47.554;8.504;2023-06-04T06:41:05;17.70;91.70
73939;DHT22;62291;47.554;8.504;2023-06-04T06:43:31;17.90;91.60
73939;DHT22;62291;47.554;8.504;2023-06-04T06:45:57;18.10;91.40
73939;DHT22;62291;47.554;8.504;2023-06-04T06:48:23;18.10;91.10
73939;DHT22;62291;47.554;8.504;2023-06-04T06:50:48;17.90;92.00
73939;DHT22;62291;47.554;8.504;2023-06-04T06:53:14;18.00;91.40
73939;DHT22;62291;47.554;8.504;2023-06-04T06:55:39;18.00;91.70
73939;DHT22;62291;47.554;8.504;2023-06-04T06:58:05;17.90;91.60
73939;DHT22;62291;47.554;8.504;2023-06-04T07:00:30;17.90;91.50
73939;DHT22;62291;47.554;8.504;2023-06-04T07:02:56;17.90;91.50
73939;DHT22;62291;47.554;8.504;2023-06-04T07:05:22;17.70;91.90
73939;DHT22;62291;47.554;8.504;2023-06-04T07:07:47;17.60;92.50
73939;DHT22;62291;47.554;8.504;2023-06-04T07:10:13;17.60;92.50
73939;DHT22;62291;47.554;8.504;2023-06-04T07:12:39;17.50;92.80
73939;DHT22;62291;47.554;8.504;2023-06-04T07:15:05;17.50;92.50
73939;DHT22;62291;47.554;8.504;2023-06-04T07:17:31;17.60;93.00
73939;DHT22;62291;47.554;8.504;2023-06-04T07:19:56;17.60;92.80
73939;DHT22;62291;47.554;8.504;2023-06-04T07:22:22;17.60;92.90
73939;DHT22;62291;47.554;8.504;2023-06-04T07:24:47;17.50;92.80
73939;DHT22;62291;47.554;8.504;2023-06-04T07:27:13;17.40;92.50
73939;DHT22;62291;47.554;8.504;2023-06-04T07:29:39;17.30;93.00
73939;DHT22;62291;47.554;8.504;2023-06-04T07:32:05;17.30;93.70
73939;DHT22;62291;47.554;8.504;2023-06-04T07:34:31;17.20;93.50
73939;DHT22;62291;47.554;8.504;2023-06-04T07:36:57;17.20;93.70
73939;DHT22;62291;47.554;8.504;2023-06-04T07:39:22;17.20;93.50
73939;DHT22;62291;47.554;8.504;2023-06-04T07:41:48;17.10;93.80
73939;DHT22;62291;47.554;8.504;2023-06-04T07:44:14;17.10;93.70
73939;DHT22;62291;47.554;8.504;2023-06-04T07:46:39;17.20;94.10
73939;DHT22;62291;47.554;8.504;2023-06-04T07:49:05;17.20;94.20
73939;DHT22;62291;47.554;8.504;2023-06-04T07:51:31;17.30;94.00
73939;DHT22;62291;47.554;8.504;2023-06-04T07:53:56;17.40;94.20
73939;DHT22;62291;47.554;8.504;2023-06-04T07:56:22;17.50;94.20
73939;DHT22;62291;47.554;8.504;2023-06-04T07:58:47;17.50;93.60
73939;DHT22;62291;47.554;8.504;2023-06-04T08:01:13;17.60;93.10
73939;DHT22;62291;47.554;8.504;2023-06-04T08:03:38;17.80;93.00
73939;DHT22;62291;47.554;8.504;2023-06-04T08:06:05;17.80;92.90
73939;DHT22;62291;47.554;8.504;2023-06-04T08:08:31;17.80;92.70
73939;DHT22;62291;47.554;8.504;2023-06-04T08:10:59;17.80;93.40
73939;DHT22;62291;47.554;8.504;2023-06-04T08:13:24;17.80;92.80
73939;DHT22;62291;47.554;8.504;2023-06-04T08:15:50;17.60;92.90
73939;DHT22;62291;47.554;8.504;2023-06-04T08:18:15;17.70;93.50
73939;DHT22;62291;47.554;8.504;2023-06-04T08:20:41;17.80;92.80
73939;DHT22;62291;47.554;8.504;2023-06-04T08:23:06;17.90;93.00
73939;DHT22;62291;47.554;8.504;2023-06-04T08:25:32;18.00;93.00
73939;DHT22;62291;47.554;8.504;2023-06-04T08:27:58;18.20;93.80
73939;DHT22;62291;47.554;8.504;2023-06-04T08:30:24;18.40;93.00
73939;DHT22;62291;47.554;8.504;2023-06-04T08:32:50;18.40;92.80
73939;DHT22;62291;47.554;8.504;2023-06-04T08:35:16;18.40;91.80
73939;DHT22;62291;47.554;8.504;2023-06-04T08:37:42;18.30;92.40
73939;DHT22;62291;47.554;8.504;2023-06-04T08:40:08;18.30;92.70
73939;DHT22;62291;47.554;8.504;2023-06-04T08:42:38;18.30;92.30
73939;DHT22;62291;47.554;8.504;2023-06-04T08:45:03;18.30;93.00
73939;DHT22;62291;47.554;8.504;2023-06-04T08:47:32;18.50;92.60
73939;DHT22;62291;47.554;8.504;2023-06-04T08:50:00;18.80;92.40
73939;DHT22;62291;47.554;8.504;2023-06-04T08:52:28;18.70;91.60
73939;DHT22;62291;47.554;8.504;2023-06-04T08:54:54;18.70;92.10
73939;DHT22;62291;47.554;8.504;2023-06-04T08:57:20;18.80;92.40
73939;DHT22;62291;47.554;8.504;2023-06-04T08:59:48;18.80;92.40
73939;DHT22;62291;47.554;8.504;2023-06-04T09:02:15;18.90;91.70
73939;DHT22;62291;47.554;8.504;2023-06-04T09:04:41;19.00;91.70
73939;DHT22;62291;47.554;8.504;2023-06-04T09:07:08;19.30;92.30
73939;DHT22;62291;47.554;8.504;2023-06-04T09:09:36;19.50;90.30
73939;DHT22;62291;47.554;8.504;2023-06-04T09:12:02;19.50;90.40
73939;DHT22;62291;47.554;8.504;2023-06-04T09:14:28;19.40;89.80
73939;DHT22;62291;47.554;8.504;2023-06-04T09:16:54;19.40;91.00
73939;DHT22;62291;47.554;8.504;2023-06-04T09:19:24;19.60;90.10
73939;DHT22;62291;47.554;8.504;2023-06-04T09:24:19;19.50;90.00
73939;DHT22;62291;47.554;8.504;2023-06-04T09:26:44;19.50;91.30
73939;DHT22;62291;47.554;8.504;2023-06-04T09:29:10;19.60;90.80
73939;DHT22;62291;47.554;8.504;2023-06-04T09:31:36;19.70;90.60
73939;DHT22;62291;47.554;8.504;2023-06-04T09:34:03;19.80;90.90
73939;DHT22;62291;47.554;8.504;2023-06-04T09:36:32;19.90;90.00
73939;DHT22;62291;47.554;8.504;2023-06-04T09:38:58;20.10;88.50
73939;DHT22;62291;47.554;8.504;2023-06-04T09:41:24;20.10;89.60
73939;DHT22;62291;47.554;8.504;2023-06-04T09:43:51;20.30;88.10
73939;DHT22;62291;47.554;8.504;2023-06-04T09:46:17;20.40;89.20
73939;DHT22;62291;47.554;8.504;2023-06-04T09:48:43;20.70;88.30
73939;DHT22;62291;47.554;8.504;2023-06-04T09:51:09;20.90;86.10
73939;DHT22;62291;47.554;8.504;2023-06-04T09:53:35;21.10;89.20
73939;DHT22;62291;47.554;8.504;2023-06-04T09:56:02;21.40;88.80
73939;DHT22;62291;47.554;8.504;2023-06-04T09:58:29;21.80;85.90
73939;DHT22;62291;47.554;8.504;2023-06-04T10:00:55;22.20;85.90
73939;DHT22;62291;47.554;8.504;2023-06-04T10:03:22;22.40;86.20
73939;DHT22;62291;47.554;8.504;2023-06-04T10:05:53;22.00;81.80
73939;DHT22;62291;47.554;8.504;2023-06-04T10:08:21;21.90;86.60
73939;DHT22;62291;47.554;8.504;2023-06-04T10:10:47;21.80;82.80
73939;DHT22;62291;47.554;8.504;2023-06-04T10:13:14;21.80;83.20
73939;DHT22;62291;47.554;8.504;2023-06-04T10:15:42;21.80;82.90
73939;DHT22;62291;47.554;8.504;2023-06-04T10:18:07;22.20;84.90
73939;DHT22;62291;47.554;8.504;2023-06-04T10:20:34;22.60;82.90
73939;DHT22;62291;47.554;8.504;2023-06-04T10:23:00;22.60;80.80
73939;DHT22;62291;47.554;8.504;2023-06-04T10:25:26;22.30;82.60
73939;DHT22;62291;47.554;8.504;2023-06-04T10:27:51;22.50;83.80
73939;DHT22;62291;47.554;8.504;2023-06-04T10:30:17;22.80;82.40
73939;DHT22;62291;47.554;8.504;2023-06-04T10:32:42;22.60;81.90
73939;DHT22;62291;47.554;8.504;2023-06-04T10:35:08;22.60;81.80
73939;DHT22;62291;47.554;8.504;2023-06-04T10:37:34;22.40;81.40
73939;DHT22;62291;47.554;8.504;2023-06-04T10:39:59;22.50;83.60
73939;DHT22;62291;47.554;8.504;2023-06-04T10:42:25;23.20;82.60
73939;DHT22;62291;47.554;8.504;2023-06-04T10:44:51;24.10;82.20
73939;DHT22;62291;47.554;8.504;2023-06-04T10:47:26;24.50;76.60
73939;DHT22;62291;47.554;8.504;2023-06-04T10:49:53;24.90;74.00
73939;DHT22;62291;47.554;8.504;2023-06-04T10:52:19;25.50;78.00
73939;DHT22;62291;47.554;8.504;2023-06-04T10:54:45;25.80;74.80
73939;DHT22;62291;47.554;8.504;2023-06-04T10:57:17;26.20;73.60
73939;DHT22;62291;47.554;8.504;2023-06-04T11:00:00;26.40;73.30
73939;DHT22;62291;47.554;8.504;2023-06-04T11:02:26;26.50;69.90
73939;DHT22;62291;47.554;8.504;2023-06-04T11:05:04;26.40;70.10
73939;DHT22;62291;47.554;8.504;2023-06-04T11:07:41;26.20;71.30
73939;DHT22;62291;47.554;8.504;2023-06-04T11:10:07;26.20;71.10
73939;DHT22;62291;47.554;8.504;2023-06-04T11:12:46;26.20;74.70
73939;DHT22;62291;47.554;8.504;2023-06-04T11:15:13;26.60;71.60
73939;DHT22;62291;47.554;8.504;2023-06-04T11:17:48;26.50;69.90
73939;DHT22;62291;47.554;8.504;2023-06-04T11:20:17;26.50;68.60
73939;DHT22;62291;47.554;8.504;2023-06-04T11:22:54;26.60;73.70
73939;DHT22;62291;47.554;8.504;2023-06-04T11:25:19;26.70;70.00
73939;DHT22;62291;47.554;8.504;2023-06-04T11:27:47;26.90;73.70
73939;DHT22;62291;47.554;8.504;2023-06-04T11:30:13;26.60;64.50
73939;DHT22;62291;47.554;8.504;2023-06-04T11:32:39;27.30;69.00
73939;DHT22;62291;47.554;8.504;2023-06-04T11:35:05;27.60;66.10
73939;DHT22;62291;47.554;8.504;2023-06-04T11:37:34;27.70;66.30
73939;DHT22;62291;47.554;8.504;2023-06-04T11:40:00;27.90;62.60
73939;DHT22;62291;47.554;8.504;2023-06-04T11:42:27;28.00;58.30
73939;DHT22;62291;47.554;8.504;2023-06-04T11:44:56;27.70;61.10
73939;DHT22;62291;47.554;8.504;2023-06-04T11:47:21;27.80;60.00
73939;DHT22;62291;47.554;8.504;2023-06-04T11:49:48;27.90;58.20
73939;DHT22;62291;47.554;8.504;2023-06-04T11:52:14;27.90;57.70
73939;DHT22;62291;47.554;8.504;2023-06-04T11:54:39;27.60;58.30
73939;DHT22;62291;47.554;8.504;2023-06-04T11:57:05;27.50;59.10
73939;DHT22;62291;47.554;8.504;2023-06-04T11:59:31;27.50;58.30
73939;DHT22;62291;47.554;8.504;2023-06-04T12:01:56;27.20;57.20
73939;DHT22;62291;47.554;8.504;2023-06-04T12:04:22;26.90;58.70
73939;DHT22;62291;47.554;8.504;2023-06-04T12:09:21;27.30;59.50
73939;DHT22;62291;47.554;8.504;2023-06-04T12:11:47;27.70;57.10
73939;DHT22;62291;47.554;8.504;2023-06-04T12:14:16;27.70;58.90
73939;DHT22;62291;47.554;8.504;2023-06-04T12:16:43;27.40;60.00
73939;DHT22;62291;47.554;8.504;2023-06-04T12:19:19;27.00;57.40
73939;DHT22;62291;47.554;8.504;2023-06-04T12:21:44;26.90;59.80
73939;DHT22;62291;47.554;8.504;2023-06-04T12:24:11;26.90;59.10
73939;DHT22;62291;47.554;8.504;2023-06-04T12:26:37;27.10;59.40
73939;DHT22;62291;47.554;8.504;2023-06-04T12:29:15;26.90;57.40
73939;DHT22;62291;47.554;8.504;2023-06-04T12:31:41;26.70;57.00
73939;DHT22;62291;47.554;8.504;2023-06-04T12:34:07;26.80;63.00
73939;DHT22;62291;47.554;8.504;2023-06-04T12:36:33;26.50;58.80
73939;DHT22;62291;47.554;8.504;2023-06-04T12:39:04;26.20;59.10
73939;DHT22;62291;47.554;8.504;2023-06-04T12:41:31;26.30;58.60
73939;DHT22;62291;47.554;8.504;2023-06-04T12:43:57;26.20;59.40
73939;DHT22;62291;47.554;8.504;2023-06-04T12:46:23;26.30;61.40
73939;DHT22;62291;47.554;8.504;2023-06-04T12:48:51;26.50;59.60
73939;DHT22;62291;47.554;8.504;2023-06-04T12:51:17;26.40;59.50
73939;DHT22;62291;47.554;8.504;2023-06-04T12:53:43;26.40;58.70
73939;DHT22;62291;47.554;8.504;2023-06-04T12:56:09;26.60;62.30
73939;DHT22;62291;47.554;8.504;2023-06-04T12:58:35;26.80;62.30
73939;DHT22;62291;47.554;8.504;2023-06-04T13:01:01;26.90;61.50
73939;DHT22;62291;47.554;8.504;2023-06-04T13:03:26;26.90;58.40
73939;DHT22;62291;47.554;8.504;2023-06-04T13:05:52;26.90;59.10
73939;DHT22;62291;47.554;8.504;2023-06-04T13:08:19;26.90;59.10
73939;DHT22;62291;47.554;8.504;2023-06-04T13:10:46;27.00;61.40
73939;DHT22;62291;47.554;8.504;2023-06-04T13:13:11;26.90;60.80
73939;DHT22;62291;47.554;8.504;2023-06-04T13:15:37;26.80;60.60
73939;DHT22;62291;47.554;8.504;2023-06-04T13:18:02;26.80;64.40
73939;DHT22;62291;47.554;8.504;2023-06-04T13:20:28;27.00;61.60
73939;DHT22;62291;47.554;8.504;2023-06-04T13:22:54;26.90;59.80
73939;DHT22;62291;47.554;8.504;2023-06-04T13:25:19;26.80;59.60
73939;DHT22;62291;47.554;8.504;2023-06-04T13:27:45;26.70;58.60
73939;DHT22;62291;47.554;8.504;2023-06-04T13:30:11;26.20;58.90
73939;DHT22;62291;47.554;8.504;2023-06-04T13:32:36;26.10;58.40
73939;DHT22;62291;47.554;8.504;2023-06-04T13:35:02;26.00;59.00
73939;DHT22;62291;47.554;8.504;2023-06-04T13:37:28;26.10;57.50
73939;DHT22;62291;47.554;8.504;2023-06-04T13:39:53;25.90;57.00
73939;DHT22;62291;47.554;8.504;2023-06-04T13:42:19;25.90;57.20
73939;DHT22;62291;47.554;8.504;2023-06-04T13:44:44;25.90;59.50
73939;DHT22;62291;47.554;8.504;2023-06-04T13:47:10;25.90;58.20
73939;DHT22;62291;47.554;8.504;2023-06-04T13:49:35;25.70;57.60
73939;DHT22;62291;47.554;8.504;2023-06-04T13:52:01;25.70;58.30
73939;DHT22;62291;47.554;8.504;2023-06-04T13:54:26;25.70;59.00
73939;DHT22;62291;47.554;8.504;2023-06-04T13:56:52;25.90;57.70
73939;DHT22;62291;47.554;8.504;2023-06-04T13:59:17;26.00;59.20
73939;DHT22;62291;47.554;8.504;2023-06-04T14:01:43;26.10;58.80
73939;DHT22;62291;47.554;8.504;2023-06-04T14:04:08;26.00;56.80
73939;DHT22;62291;47.554;8.504;2023-06-04T14:06:36;25.90;56.30
73939;DHT22;62291;47.554;8.504;2023-06-04T14:09:03;25.90;57.90
73939;DHT22;62291;47.554;8.504;2023-06-04T14:11:29;25.90;58.20
73939;DHT22;62291;47.554;8.504;2023-06-04T14:13:55;25.70;56.40
73939;DHT22;62291;47.554;8.504;2023-06-04T14:16:21;25.60;56.40
73939;DHT22;62291;47.554;8.504;2023-06-04T14:18:46;25.40;56.90
73939;DHT22;62291;47.554;8.504;2023-06-04T14:21:12;25.40;58.20
73939;DHT22;62291;47.554;8.504;2023-06-04T14:23:38;25.20;58.20
73939;DHT22;62291;47.554;8.504;2023-06-04T14:26:03;25.30;58.20
73939;DHT22;62291;47.554;8.504;2023-06-04T14:28:29;25.30;57.40
73939;DHT22;62291;47.554;8.504;2023-06-04T14:30:54;25.20;56.40
73939;DHT22;62291;47.554;8.504;2023-06-04T14:33:20;25.20;57.50
73939;DHT22;62291;47.554;8.504;2023-06-04T14:35:45;25.40;56.30
73939;DHT22;62291;47.554;8.504;2023-06-04T14:38:12;25.30;58.10
73939;DHT22;62291;47.554;8.504;2023-06-04T14:40:39;25.50;57.90
73939;DHT22;62291;47.554;8.504;2023-06-04T14:43:07;25.50;58.90
73939;DHT22;62291;47.554;8.504;2023-06-04T14:45:32;25.50;55.10
73939;DHT22;62291;47.554;8.504;2023-06-04T14:47:58;25.50;58.00
73939;DHT22;62291;47.554;8.504;2023-06-04T14:50:23;25.50;57.30
73939;DHT22;62291;47.554;8.504;2023-06-04T14:52:49;25.50;55.70
73939;DHT22;62291;47.554;8.504;2023-06-04T14:55:14;25.50;56.90
73939;DHT22;62291;47.554;8.504;2023-06-04T14:57:40;25.40;55.20
73939;DHT22;62291;47.554;8.504;2023-06-04T15:00:06;25.40;56.00
73939;DHT22;62291;47.554;8.504;2023-06-04T15:02:31;25.40;57.60
73939;DHT22;62291;47.554;8.504;2023-06-04T15:04:57;25.30;56.60
73939;DHT22;62291;47.554;8.504;2023-06-04T15:07:22;25.20;56.30
73939;DHT22;62291;47.554;8.504;2023-06-04T15:09:48;25.10;55.60
73939;DHT22;62291;47.554;8.504;2023-06-04T15:12:14;25.00;56.60
73939;DHT22;62291;47.554;8.504;2023-06-04T15:14:41;24.90;56.10
73939;DHT22;62291;47.554;8.504;2023-06-04T15:17:07;24.90;57.90
73939;DHT22;62291;47.554;8.504;2023-06-04T15:19:33;25.10;56.40
73939;DHT22;62291;47.554;8.504;2023-06-04T15:21:58;25.10;57.50
73939;DHT22;62291;47.554;8.504;2023-06-04T15:24:24;25.10;55.00
73939;DHT22;62291;47.554;8.504;2023-06-04T15:26:49;25.20;55.80
73939;DHT22;62291;47.554;8.504;2023-06-04T15:29:15;25.20;55.40
73939;DHT22;62291;47.554;8.504;2023-06-04T15:31:41;25.30;56.20